Home > Products > Valid Products > TAF

000
FTUS44 KMAF 201100
TAFMAF
TAF
KMAF 201122Z 2012/2112 15006KT 1/4SM FG VV002
      TEMPO 2015/2018 1SM BR OVC001
     FM201800 18008KT 4SM BR OVC008
     FM202000 19009KT P6SM FEW200
     FM210200 19007KT 5SM BR BKN010=



000
FTUS44 KMAF 200800 AAA
TAFMAF
TAF AMD
KMAF 200845Z 2009/2106 09004KT 1SM BR OVC002
      TEMPO 2009/2013 1/4SM FG OVC001
     FM201700 14005KT P6SM OVC010
     FM202100 18008KT P6SM SCT200=



000
FTUS44 KMAF 200500
TAFMAF
TAF
KMAF 200521Z 2006/2106 09004KT 5SM BR SKC
     FM200700 10004KT 3SM BR OVC010
     FM201000 11004KT 1SM BR OVC004
     FM201700 14005KT P6SM OVC010
     FM202100 18008KT P6SM SCT200=



000
FTUS44 KMAF 200500
TAFMAF
TAF
KMAF 200520Z 2006/2106 09004KT 5SM BR SKC
     FM200700 10004KT 3SM BR OVC010
     FM201000 11004KT 1SM BR OVC004
     FM201700 14005KT P6SM OVC010
     FM202100 18008KT P6SM SCT200=



000
FTUS44 KMAF 200400 AAA
TAFMAF
TAF AMD
KMAF 200419Z 2004/2024 08003KT P6SM SKC
     FM200700 09004KT 5SM BR OVC010
     FM201000 11004KT 1SM BR OVC003
     FM201700 14005KT P6SM OVC010
     FM202100 18008KT P6SM SCT200=



000
FTUS44 KMAF 192300
TAFMAF
TAF
KMAF 192320Z 2000/2024 08003KT P6SM SKC
     FM200500 09004KT 5SM BR OVC008
     FM201000 11004KT 1SM BR OVC003
     FM201700 14005KT P6SM OVC010
     FM202100 18008KT P6SM SCT200=



000
FTUS44 KMAF 191700
TAFMAF
TAF
KMAF 191723Z 1918/2018 VRB05KT P6SM OVC006
      TEMPO 1918/1919 OVC010
     FM191900 25005KT P6SM SKC
     FM200600 14004KT 3SM BR OVC008
      TEMPO 2008/2012 1SM BR OVC005=



000
FTUS44 KMAF 191400 AAA
TAFMAF
TAF AMD
KMAF 191424Z 1914/2012 09007KT 6SM BR OVC004
      TEMPO 1914/1916 1SM BR OVC002
     FM192000 VRB04KT P6SM SKC=



000
FTUS44 KMAF 191100 CCA
TAFMAF
TAF COR
KMAF 191147Z 1912/2012 09007KT 4SM BR OVC004
      TEMPO 1912/1916 2SM BR OVC002
     FM192000 VRB04KT P6SM SKC=



000
FTUS44 KMAF 191100
TAFMAF
TAF
KMAF 191128Z 1912/2012 09009KT 5SM BR OVC004
      TEMPO 1912/1916 6SM BR OVC008
     FM192000 VRB04KT P6SM SKC=



000
FTUS44 KMAF 191000 AAA
TAFMAF
TAF AMD
KMAF 191002Z 1910/2006 06006KT P6SM SCT006
      TEMPO 1912/1916 3SM BR OVC006
     FM192000 VRB04KT P6SM SKC=



000
FTUS44 KMAF 191000 AAA
TAFMAF
TAF AMD
KMAF 191002Z 1910/2006 06006KT P6SM SCT006
      TEMPO 1912/1916 3SM BR OVC006
     FM192000 VRB04KT P6SM SKC=



000
FTUS44 KMAF 190500
TAFMAF
TAF
KMAF 190520Z 1906/2006 07006KT P6SM SCT050 OVC100
     FM191000 06005KT P6SM OVC015
      TEMPO 1912/1916 3SM BR OVC004
     FM192000 VRB04KT P6SM SKC=



000
FTUS44 KMAF 182300
TAFMAF
TAF
KMAF 182324Z 1900/1924 08004KT P6SM OVC150
     FM190800 05006KT 3SM -DZ BR OVC008
      TEMPO 1912/1916 3/4SM -DZ BR OVC004=



000
FTUS44 KMAF 181700
TAFMAF
TAF
KMAF 181720Z 1818/1918 29008KT P6SM SCT200
     FM190800 05006KT 1SM -DZ BR OVC004=



000
FTUS44 KMAF 181100
TAFMAF
TAF
KMAF 181124Z 1812/1912 26008KT P6SM SCT200
     FM182100 VRB04KT P6SM BKN200
     FM190300 07007KT P6SM BKN060=



000
FTUS44 KMAF 180500
TAFMAF
TAF
KMAF 180530Z 1806/1906 21008KT P6SM FEW250
     FM181400 29008KT P6SM BKN200=



000
FTUS44 KMAF 172300
TAFMAF
TAF
KMAF 172323Z 1800/1824 27018G25KT P6SM FEW250
     FM180100 23011KT P6SM FEW250
     FM181400 29007KT P6SM BKN200=



000
FTUS44 KMAF 172100 AAD
TAFMAF
TAF AMD
KMAF 172106Z 1721/1818 24011G20KT P6SM SCT250
     FM180000 23010KT P6SM SCT200
     FM181400 29007KT P6SM BKN250=



000
FTUS44 KMAF 172100 AAC
TAFMAF
TAF AMD
KMAF 172104Z 1721/1818 24011KT P6SM SCT250
     FM180000 23007KT P6SM SCT200
     FM181400 29007KT P6SM BKN250=



000
FTUS44 KMAF 172000 AAB
TAFMAF
TAF AMD
KMAF 172000Z 1720/1818 21012G22KT P6SM SCT250
     FM180000 23007KT P6SM SCT200
     FM181400 29007KT P6SM BKN250=



000
FTUS44 KMAF 171800 AAA
TAFMAF
TAF AMD
KMAF 171828Z 1718/1818 20012KT P6SM SCT019 SCT250
     FM180000 23007KT P6SM SCT200
     FM181400 29007KT P6SM BKN250=



    US Dept of Commerce
    National Oceanic and Atmospheric Administration
    National Weather Service
    1325 East West Highway
    Silver Spring, MD 20910
    Page Author: NWS Internet Services Team
Disclaimer
Information Quality
Credits
Glossary
Privacy Policy
Freedom of Information Act (FOIA)
About Us
Career Opportunities